Time;durP1;ratioP1;P1;durP2;ratioP2;P2;SDS_P1;SDS_P2;PMS_P1;PMS_P2;Temp;Humidity;BMP_temperature;BMP_pressure;BME280_temperature;BME280_humidity;BME280_pressure;Samples;Min_cycle;Max_cycle;Signal;HPM_P1;HPM_P2
2023/01/29 00:02:20;;;;;;;;;;;;;;;;;;5082927;28;19912;-52
2023/01/29 00:04:46;;;;;;;;;;;;;;;;;;5092644;28;19919;-52
2023/01/29 00:07:11;;;;;;;;;;;;;;;;;;5092814;28;19964;-50
2023/01/29 00:09:38;;;;;;;;;;;;;;;;;;5092560;28;19916;-50
2023/01/29 00:12:06;;;;;;;;;;;;;;;;;;5093009;28;19912;-52
2023/01/29 00:14:32;;;;;;;;;;;;;;;;;;5074379;28;19923;-50
2023/01/29 00:16:58;;;;;;;;;;;;;;;;;;5077658;28;19913;-53
2023/01/29 00:19:24;;;;;;;;;;;;;;;;;;5086394;28;20003;-52
2023/01/29 00:21:49;;;;;;;;;;;;;;;;;;5085774;28;19995;-50
2023/01/29 00:24:15;;;;;;;;;;;;;;;;;;5092594;28;19995;-52
2023/01/29 00:26:42;;;;;;;;;;;;;;;;;;5074329;28;20460;-50
2023/01/29 00:29:07;;;;;;;;;;;;;;;;;;5073997;28;19916;-50
2023/01/29 00:31:33;;;;;;;;;;;;;;;;;;5074496;28;19995;-52
2023/01/29 00:33:59;;;;;;;;;;;;;;;;;;5092671;28;20188;-51
2023/01/29 00:36:25;;;;;;;;;;;;;;;;;;5071028;28;20444;-52
2023/01/29 00:38:53;;;;;;;;;;;;;;;;;;5094785;22;19925;-55
2023/01/29 00:46:48;;;;;;;;;;;;;;;;;;5072240;28;20351;-55
2023/01/29 00:49:14;;;;;;;;;;;;;;;;;;5063886;28;19956;-57
2023/01/29 00:51:40;;;;;;;;;;;;;;;;;;5052572;28;19913;-56
2023/01/29 00:54:06;;;;;;;;;;;;;;;;;;5060231;28;19939;-55
2023/01/29 00:56:32;;;;;;;;;;;;;;;;;;5052097;28;20440;-55
2023/01/29 00:58:58;;;;;;;;;;;;;;;;;;5054452;28;20019;-55
2023/01/29 01:04:08;;;;;;;;;;;;;;;;;;5070565;28;20377;-56
2023/01/29 01:06:34;;;;;;;;;;;;;;;;;;5072049;28;20003;-55
2023/01/29 01:11:45;;;;;;;;;;;;;;;;;;5051209;28;19919;-56
2023/01/29 01:14:11;;;;;;;;;;;;;;;;;;5053154;28;19913;-57
2023/01/29 01:16:37;;;;;;;;;;;;;;;;;;5051792;28;19919;-58
2023/01/29 01:19:03;;;;;;;;;;;;;;;;;;5040168;28;19948;-54
2023/01/29 01:21:29;;;;;;;;;;;;;;;;;;5075731;28;19912;-58
2023/01/29 01:23:54;;;;;;;;;;;;;;;;;;5069871;28;19967;-56
2023/01/29 01:26:20;;;;;;;;;;;;;;;;;;5055898;28;19917;-53
2023/01/29 01:28:46;;;;;;;;;;;;;;;;;;5057368;28;20000;-54
2023/01/29 01:31:12;;;;;;;;;;;;;;;;;;5065807;28;20007;-50
2023/01/29 01:33:38;;;;;;;;;;;;;;;;;;5055957;28;20402;-53
2023/01/29 01:36:08;;;;;;;;;;;;;;;;;;5057291;28;19944;-56
2023/01/29 01:38:34;;;;;;;;;;;;;;;;;;5058759;28;19962;-55
2023/01/29 01:40:59;;;;;;;;;;;;;;;;;;5055685;28;19913;-55
2023/01/29 01:43:25;;;;;;;;;;;;;;;;;;5075433;28;20296;-53
2023/01/29 01:45:52;;;;;;;;;;;;;;;;;;5075245;28;20011;-56
2023/01/29 01:48:18;;;;;;;;;;;;;;;;;;5065841;28;20399;-54
2023/01/29 01:50:44;;;;;;;;;;;;;;;;;;5060256;28;19917;-54
2023/01/29 01:53:10;;;;;;;;;;;;;;;;;;5067723;28;19920;-51
2023/01/29 01:55:36;;;;;;;;;;;;;;;;;;5075347;28;19919;-52
2023/01/29 01:58:02;;;;;;;;;;;;;;;;;;5073693;28;20302;-53
2023/01/29 02:00:28;;;;;;;;;;;;;;;;;;5051028;28;20460;-54
2023/01/29 02:11:07;;;;;;;;;;;;;;;;;;5055894;28;19939;-55
2023/01/29 02:13:33;;;;;;;;;;;;;;;;;;5055118;28;20405;-55
2023/01/29 02:15:59;;;;;;;;;;;;;;;;;;5054800;28;20285;-53
2023/01/29 02:18:25;;;;;;;;;;;;;;;;;;5058287;28;19943;-55
2023/01/29 02:20:51;;;;;;;;;;;;;;;;;;5071907;28;20329;-50
2023/01/29 02:23:17;;;;;;;;;;;;;;;;;;5074194;28;19912;-53
2023/01/29 02:25:43;;;;;;;;;;;;;;;;;;5074562;28;19912;-55
2023/01/29 02:28:09;;;;;;;;;;;;;;;;;;5071877;28;20292;-54
2023/01/29 02:30:35;;;;;;;;;;;;;;;;;;5063041;28;19924;-53
2023/01/29 02:33:06;;;;;;;;;;;;;;;;;;5074535;28;19912;-55
2023/01/29 02:35:32;;;;;;;;;;;;;;;;;;5061674;28;19913;-54
2023/01/29 02:37:58;;;;;;;;;;;;;;;;;;5055632;28;19919;-51
2023/01/29 02:40:24;;;;;;;;;;;;;;;;;;5071030;28;19924;-53
2023/01/29 02:42:50;;;;;;;;;;;;;;;;;;5054687;28;20105;-54
2023/01/29 02:45:16;;;;;;;;;;;;;;;;;;5059563;28;19914;-55
2023/01/29 02:47:42;;;;;;;;;;;;;;;;;;5065407;28;20296;-54
2023/01/29 02:50:07;;;;;;;;;;;;;;;;;;5062662;28;19923;-53
2023/01/29 02:52:33;;;;;;;;;;;;;;;;;;5063492;28;19912;-53
2023/01/29 02:55:01;;;;;;;;;;;;;;;;;;5072740;28;20014;-54
2023/01/29 02:57:30;;;;;;;;;;;;;;;;;;5073815;28;19919;-54
2023/01/29 02:59:56;;;;;;;;;;;;;;;;;;5059208;28;20294;-55
2023/01/29 03:02:22;;;;;;;;;;;;;;;;;;5070437;28;19908;-51
2023/01/29 03:04:48;;;;;;;;;;;;;;;;;;5062200;28;19913;-51
2023/01/29 03:07:39;;;;;;;;;;;;;;;;;;5056420;28;19913;-53
2023/01/29 03:10:00;;;;;;;;;;;;;;;;;;5058234;28;19960;-53
2023/01/29 03:12:34;;;;;;;;;;;;;;;;;;5054078;28;20388;-54
2023/01/29 03:15:15;;;;;;;;;;;;;;;;;;5035973;28;20003;-53
2023/01/29 03:17:41;;;;;;;;;;;;;;;;;;5053946;28;19912;-55
2023/01/29 03:20:07;;;;;;;;;;;;;;;;;;5068785;28;20261;-55
2023/01/29 03:22:33;;;;;;;;;;;;;;;;;;5071166;28;20285;-57
2023/01/29 03:33:13;;;;;;;;;;;;;;;;;;5038115;28;19924;-54
2023/01/29 03:35:39;;;;;;;;;;;;;;;;;;5053471;28;20313;-55
2023/01/29 03:38:05;;;;;;;;;;;;;;;;;;5054798;28;20258;-52
2023/01/29 03:40:31;;;;;;;;;;;;;;;;;;5053609;28;20007;-55
2023/01/29 03:42:57;;;;;;;;;;;;;;;;;;5052989;28;19920;-51
2023/01/29 03:45:22;;;;;;;;;;;;;;;;;;5035337;28;19912;-53
2023/01/29 03:47:48;;;;;;;;;;;;;;;;;;5054300;28;19909;-52
2023/01/29 03:50:14;;;;;;;;;;;;;;;;;;5066589;28;20405;-56
2023/01/29 03:52:40;;;;;;;;;;;;;;;;;;5054301;28;19913;-53
2023/01/29 03:55:09;;;;;;;;;;;;;;;;;;5065092;28;19912;-53
2023/01/29 03:57:35;;;;;;;;;;;;;;;;;;5036438;28;19999;-53
2023/01/29 04:00:01;;;;;;;;;;;;;;;;;;5044817;28;20046;-56
2023/01/29 04:02:27;;;;;;;;;;;;;;;;;;5048922;28;19974;-54
2023/01/29 04:04:53;;;;;;;;;;;;;;;;;;5072622;28;19997;-52
2023/01/29 04:07:23;;;;;;;;;;;;;;;;;;5058854;28;19913;-52
2023/01/29 04:09:49;;;;;;;;;;;;;;;;;;5063447;28;19913;-54
2023/01/29 04:12:15;;;;;;;;;;;;;;;;;;5072959;28;19912;-53
2023/01/29 04:14:41;;;;;;;;;;;;;;;;;;5072641;28;20353;-54
2023/01/29 04:17:06;;;;;;;;;;;;;;;;;;5060649;28;19921;-51
2023/01/29 04:19:32;;;;;;;;;;;;;;;;;;5052684;28;19913;-52
2023/01/29 04:21:58;;;;;;;;;;;;;;;;;;5052933;28;19909;-53
2023/01/29 04:24:24;;;;;;;;;;;;;;;;;;5057929;28;19908;-53
2023/01/29 04:26:50;;;;;;;;;;;;;;;;;;5062916;28;20296;-51
2023/01/29 04:29:16;;;;;;;;;;;;;;;;;;5052281;28;20376;-55
2023/01/29 04:31:42;;;;;;;;;;;;;;;;;;5061890;28;19959;-56
2023/01/29 04:34:08;;;;;;;;;;;;;;;;;;5072601;28;19915;-54
2023/01/29 04:36:34;;;;;;;;;;;;;;;;;;5065255;28;19909;-54
2023/01/29 04:39:00;;;;;;;;;;;;;;;;;;5054509;28;19950;-53
2023/01/29 04:41:26;;;;;;;;;;;;;;;;;;5072454;28;19919;-53
2023/01/29 04:43:52;;;;;;;;;;;;;;;;;;5072064;28;19912;-55
2023/01/29 04:46:18;;;;;;;;;;;;;;;;;;5067350;28;20492;-55
2023/01/29 04:48:44;;;;;;;;;;;;;;;;;;5052426;28;19909;-54
2023/01/29 04:51:10;;;;;;;;;;;;;;;;;;5054510;28;20373;-54
2023/01/29 04:53:36;;;;;;;;;;;;;;;;;;5051442;28;19909;-55
2023/01/29 04:56:02;;;;;;;;;;;;;;;;;;5062408;28;19920;-53
2023/01/29 04:58:28;;;;;;;;;;;;;;;;;;5051726;28;20023;-50
2023/01/29 05:00:54;;;;;;;;;;;;;;;;;;5056852;28;20057;-51
2023/01/29 05:03:19;;;;;;;;;;;;;;;;;;5070926;28;19955;-53
2023/01/29 05:05:45;;;;;;;;;;;;;;;;;;5069528;28;19913;-56
2023/01/29 05:08:12;;;;;;;;;;;;;;;;;;5071182;28;19908;-53
2023/01/29 05:10:38;;;;;;;;;;;;;;;;;;5059592;28;19998;-50
2023/01/29 05:13:04;;;;;;;;;;;;;;;;;;5071070;28;19908;-55
2023/01/29 05:15:29;;;;;;;;;;;;;;;;;;5064867;28;20338;-50
2023/01/29 05:18:00;;;;;;;;;;;;;;;;;;5051832;28;19916;-56
2023/01/29 05:20:26;;;;;;;;;;;;;;;;;;5058958;28;19917;-54
2023/01/29 05:22:52;;;;;;;;;;;;;;;;;;5072063;28;19909;-56
2023/01/29 05:25:18;;;;;;;;;;;;;;;;;;5062396;28;20292;-53
2023/01/29 05:30:29;;;;;;;;;;;;;;;;;;5051653;28;20047;-54
2023/01/29 05:32:55;;;;;;;;;;;;;;;;;;5051615;28;19970;-54
2023/01/29 05:35:21;;;;;;;;;;;;;;;;;;5051533;28;19913;-56
2023/01/29 05:37:46;;;;;;;;;;;;;;;;;;5051744;28;19943;-56
2023/01/29 05:40:12;;;;;;;;;;;;;;;;;;5051381;28;19927;-53
2023/01/29 05:42:38;;;;;;;;;;;;;;;;;;5051795;28;20281;-53
2023/01/29 05:45:04;;;;;;;;;;;;;;;;;;5051074;28;19913;-56
2023/01/29 05:47:30;;;;;;;;;;;;;;;;;;5033873;28;19909;-52
2023/01/29 05:49:56;;;;;;;;;;;;;;;;;;5033423;28;19917;-56
2023/01/29 05:52:22;;;;;;;;;;;;;;;;;;5051432;28;19935;-56
2023/01/29 05:54:48;;;;;;;;;;;;;;;;;;5050932;28;20015;-54
2023/01/29 05:57:14;;;;;;;;;;;;;;;;;;5051555;28;19999;-55
2023/01/29 05:59:40;;;;;;;;;;;;;;;;;;5051533;28;19913;-57
2023/01/29 06:02:06;;;;;;;;;;;;;;;;;;5051844;28;19913;-58
2023/01/29 06:04:31;;;;;;;;;;;;;;;;;;5051490;28;19933;-55
2023/01/29 06:06:57;;;;;;;;;;;;;;;;;;5037368;28;20403;-55
2023/01/29 06:09:23;;;;;;;;;;;;;;;;;;5037154;28;20122;-54
2023/01/29 06:11:49;;;;;;;;;;;;;;;;;;5055078;28;20042;-52
2023/01/29 06:14:15;;;;;;;;;;;;;;;;;;5055233;28;19939;-55
2023/01/29 06:16:41;;;;;;;;;;;;;;;;;;5054872;28;19916;-56
2023/01/29 06:19:07;;;;;;;;;;;;;;;;;;5054817;28;20379;-53
2023/01/29 06:21:33;;;;;;;;;;;;;;;;;;5054879;28;19919;-53
2023/01/29 06:23:59;;;;;;;;;;;;;;;;;;5054703;28;19909;-56
2023/01/29 06:26:25;;;;;;;;;;;;;;;;;;5054410;28;19920;-56
2023/01/29 06:28:51;;;;;;;;;;;;;;;;;;5055090;28;20301;-55
2023/01/29 06:31:17;;;;;;;;;;;;;;;;;;5054829;28;20364;-54
2023/01/29 06:33:43;;;;;;;;;;;;;;;;;;5055472;28;20332;-54
2023/01/29 06:36:09;;;;;;;;;;;;;;;;;;5054983;28;19909;-54
2023/01/29 06:38:35;;;;;;;;;;;;;;;;;;5037186;28;19970;-56
2023/01/29 06:41:01;;;;;;;;;;;;;;;;;;5071330;28;19913;-57
2023/01/29 06:43:27;;;;;;;;;;;;;;;;;;5074673;28;19912;-56
2023/01/29 06:45:53;;;;;;;;;;;;;;;;;;5055733;28;19913;-55
2023/01/29 06:48:19;;;;;;;;;;;;;;;;;;5054534;28;19908;-57
2023/01/29 06:50:45;;;;;;;;;;;;;;;;;;5072730;28;19916;-56
2023/01/29 06:53:11;;;;;;;;;;;;;;;;;;5063344;28;20297;-56
2023/01/29 06:55:37;;;;;;;;;;;;;;;;;;5052085;28;20156;-56
2023/01/29 06:58:02;;;;;;;;;;;;;;;;;;5074004;28;19912;-56
2023/01/29 07:00:28;;;;;;;;;;;;;;;;;;5074510;28;20401;-57
2023/01/29 07:02:54;;;;;;;;;;;;;;;;;;5073980;28;19920;-54
2023/01/29 07:05:20;;;;;;;;;;;;;;;;;;5056435;28;19913;-54
2023/01/29 07:07:46;;;;;;;;;;;;;;;;;;5036162;28;19916;-55
2023/01/29 07:10:12;;;;;;;;;;;;;;;;;;5064454;28;19916;-57
2023/01/29 07:12:38;;;;;;;;;;;;;;;;;;5068570;28;20274;-56
2023/01/29 07:15:04;;;;;;;;;;;;;;;;;;5042219;28;19963;-55
2023/01/29 07:17:30;;;;;;;;;;;;;;;;;;5055280;28;19912;-56
2023/01/29 07:19:56;;;;;;;;;;;;;;;;;;5059561;28;19947;-57
2023/01/29 07:22:22;;;;;;;;;;;;;;;;;;5057551;28;19955;-57
2023/01/29 07:24:48;;;;;;;;;;;;;;;;;;5039799;28;19951;-54
2023/01/29 07:27:13;;;;;;;;;;;;;;;;;;5054661;28;19936;-56
2023/01/29 07:29:39;;;;;;;;;;;;;;;;;;5073653;28;19912;-57
2023/01/29 07:32:06;;;;;;;;;;;;;;;;;;5055148;28;20277;-57
2023/01/29 07:34:32;;;;;;;;;;;;;;;;;;5053518;28;19983;-55
2023/01/29 07:36:58;;;;;;;;;;;;;;;;;;5061225;28;20368;-55
2023/01/29 07:39:24;;;;;;;;;;;;;;;;;;5055243;28;19963;-55
2023/01/29 07:41:50;;;;;;;;;;;;;;;;;;5073490;28;19916;-56
2023/01/29 07:44:16;;;;;;;;;;;;;;;;;;5073530;28;19915;-57
2023/01/29 07:46:42;;;;;;;;;;;;;;;;;;5056952;28;19909;-55
2023/01/29 07:49:08;;;;;;;;;;;;;;;;;;5054729;28;19948;-55
2023/01/29 07:51:34;;;;;;;;;;;;;;;;;;5055901;28;19978;-56
2023/01/29 07:54:00;;;;;;;;;;;;;;;;;;5055002;28;19913;-54
2023/01/29 07:56:25;;;;;;;;;;;;;;;;;;5053305;28;19913;-57
2023/01/29 07:58:51;;;;;;;;;;;;;;;;;;5055110;28;20045;-55
2023/01/29 08:01:17;;;;;;;;;;;;;;;;;;5073171;28;20345;-56
2023/01/29 08:03:43;;;;;;;;;;;;;;;;;;5073065;28;19920;-55
2023/01/29 08:06:09;;;;;;;;;;;;;;;;;;5072510;28;20283;-56
2023/01/29 08:08:35;;;;;;;;;;;;;;;;;;5072294;28;20299;-54
2023/01/29 08:11:01;;;;;;;;;;;;;;;;;;5057105;28;19917;-56
2023/01/29 08:13:27;;;;;;;;;;;;;;;;;;5063326;28;20291;-55
2023/01/29 08:15:53;;;;;;;;;;;;;;;;;;5072755;28;19931;-57
2023/01/29 08:18:19;;;;;;;;;;;;;;;;;;5055463;28;20296;-58
2023/01/29 08:20:45;;;;;;;;;;;;;;;;;;5052717;28;19908;-58
2023/01/29 08:23:11;;;;;;;;;;;;;;;;;;5034915;28;19905;-57
2023/01/29 08:25:37;;;;;;;;;;;;;;;;;;5052468;28;20261;-56
2023/01/29 08:28:03;;;;;;;;;;;;;;;;;;5052505;28;19905;-56
2023/01/29 08:30:28;;;;;;;;;;;;;;;;;;5052305;28;19925;-57
2023/01/29 08:32:54;;;;;;;;;;;;;;;;;;5051360;28;19912;-54
2023/01/29 08:35:20;;;;;;;;;;;;;;;;;;5052364;28;19909;-55
2023/01/29 08:37:46;;;;;;;;;;;;;;;;;;5052161;28;20164;-54
2023/01/29 08:40:12;;;;;;;;;;;;;;;;;;5052329;28;19916;-55
2023/01/29 08:42:40;;;;;;;;;;;;;;;;;;5053996;28;19913;-56
2023/01/29 08:45:06;;;;;;;;;;;;;;;;;;5066200;28;19919;-57
2023/01/29 08:47:32;;;;;;;;;;;;;;;;;;5072323;28;19908;-55
2023/01/29 08:49:57;;;;;;;;;;;;;;;;;;5062873;28;19912;-57
2023/01/29 08:52:23;;;;;;;;;;;;;;;;;;5052546;28;20031;-57
2023/01/29 08:54:49;;;;;;;;;;;;;;;;;;5052417;28;19912;-57
2023/01/29 08:57:15;;;;;;;;;;;;;;;;;;5052190;28;19909;-57
2023/01/29 08:59:41;;;;;;;;;;;;;;;;;;5055664;28;19974;-57
2023/01/29 09:02:07;;;;;;;;;;;;;;;;;;5045580;28;19921;-56
2023/01/29 09:04:33;;;;;;;;;;;;;;;;;;5072029;28;19909;-57
2023/01/29 09:06:59;;;;;;;;;;;;;;;;;;5070892;28;19951;-56
2023/01/29 09:09:25;;;;;;;;;;;;;;;;;;5071950;28;19966;-57
2023/01/29 09:11:51;;;;;;;;;;;;;;;;;;5053800;28;19966;-54
2023/01/29 09:14:17;;;;;;;;;;;;;;;;;;5052110;28;20310;-56
2023/01/29 09:16:43;;;;;;;;;;;;;;;;;;5059570;28;19924;-52
2023/01/29 09:19:08;;;;;;;;;;;;;;;;;;5072062;28;20380;-59
2023/01/29 09:21:34;;;;;;;;;;;;;;;;;;5072000;28;19905;-56
2023/01/29 09:24:00;;;;;;;;;;;;;;;;;;5070651;28;19962;-55
2023/01/29 09:26:26;;;;;;;;;;;;;;;;;;5071815;28;19909;-54
2023/01/29 09:28:52;;;;;;;;;;;;;;;;;;5064058;28;19916;-56
2023/01/29 09:31:18;;;;;;;;;;;;;;;;;;5051731;28;19920;-57
2023/01/29 09:33:44;;;;;;;;;;;;;;;;;;5051571;28;19966;-57
2023/01/29 09:36:10;;;;;;;;;;;;;;;;;;5051315;28;19917;-55
2023/01/29 09:38:36;;;;;;;;;;;;;;;;;;5070811;28;19924;-57
2023/01/29 09:41:02;;;;;;;;;;;;;;;;;;5052971;28;20015;-56
2023/01/29 09:43:28;;;;;;;;;;;;;;;;;;5055736;28;19992;-57
2023/01/29 09:45:54;;;;;;;;;;;;;;;;;;5055379;28;19940;-57
2023/01/29 09:48:20;;;;;;;;;;;;;;;;;;5055645;28;19947;-57
2023/01/29 09:50:46;;;;;;;;;;;;;;;;;;5055607;28;19913;-56
2023/01/29 09:53:12;;;;;;;;;;;;;;;;;;5055577;28;20396;-57
2023/01/29 09:55:38;;;;;;;;;;;;;;;;;;5071835;28;19908;-52
2023/01/29 09:58:04;;;;;;;;;;;;;;;;;;5075487;28;19923;-51
2023/01/29 10:00:30;;;;;;;;;;;;;;;;;;5075406;28;19915;-54
2023/01/29 10:02:56;;;;;;;;;;;;;;;;;;5075480;28;20280;-53
2023/01/29 10:05:22;;;;;;;;;;;;;;;;;;5073880;28;19908;-53
2023/01/29 10:07:48;;;;;;;;;;;;;;;;;;5073697;28;19908;-55
2023/01/29 10:10:14;;;;;;;;;;;;;;;;;;5064829;28;19916;-53
2023/01/29 10:12:40;;;;;;;;;;;;;;;;;;5058077;28;20262;-51
2023/01/29 10:15:07;;;;;;;;;;;;;;;;;;5059686;28;19915;-54
2023/01/29 10:17:33;;;;;;;;;;;;;;;;;;5073725;28;19912;-52
2023/01/29 10:19:59;;;;;;;;;;;;;;;;;;5075024;28;19912;-52
2023/01/29 10:22:25;;;;;;;;;;;;;;;;;;5075143;28;19915;-56
2023/01/29 10:24:51;;;;;;;;;;;;;;;;;;5073576;28;20344;-54
2023/01/29 10:27:17;;;;;;;;;;;;;;;;;;5074980;28;19913;-53
2023/01/29 10:29:43;;;;;;;;;;;;;;;;;;5074624;28;19912;-54
2023/01/29 10:32:08;;;;;;;;;;;;;;;;;;5073541;28;19909;-54
2023/01/29 10:34:35;;;;;;;;;;;;;;;;;;5074478;28;19904;-55
2023/01/29 10:37:01;;;;;;;;;;;;;;;;;;5074694;28;20003;-52
2023/01/29 10:39:27;;;;;;;;;;;;;;;;;;5068858;28;20011;-53
2023/01/29 10:41:53;;;;;;;;;;;;;;;;;;5052708;28;19995;-55
2023/01/29 10:44:19;;;;;;;;;;;;;;;;;;5053706;28;19979;-52
2023/01/29 10:46:44;;;;;;;;;;;;;;;;;;5054707;28;19909;-50
2023/01/29 10:49:10;;;;;;;;;;;;;;;;;;5054390;28;19905;-53
2023/01/29 10:51:36;;;;;;;;;;;;;;;;;;5053147;28;19909;-56
2023/01/29 10:54:02;;;;;;;;;;;;;;;;;;5054379;28;19909;-55
2023/01/29 10:56:28;;;;;;;;;;;;;;;;;;5054187;28;19909;-53
2023/01/29 10:58:54;;;;;;;;;;;;;;;;;;5053043;28;20293;-54
2023/01/29 11:01:20;;;;;;;;;;;;;;;;;;5054323;28;20258;-54
2023/01/29 11:03:46;;;;;;;;;;;;;;;;;;5054282;28;19909;-53
2023/01/29 11:06:12;;;;;;;;;;;;;;;;;;5054059;28;19913;-52
2023/01/29 11:08:38;;;;;;;;;;;;;;;;;;5054021;28;19909;-53
2023/01/29 11:11:04;;;;;;;;;;;;;;;;;;5054091;28;19919;-52
2023/01/29 11:13:30;;;;;;;;;;;;;;;;;;5052709;28;19916;-52
2023/01/29 11:15:56;;;;;;;;;;;;;;;;;;5054390;28;19909;-55
2023/01/29 11:18:22;;;;;;;;;;;;;;;;;;5053882;28;19909;-56
2023/01/29 11:20:48;;;;;;;;;;;;;;;;;;5053935;28;19908;-53
2023/01/29 11:23:14;;;;;;;;;;;;;;;;;;5053867;28;19908;-54
2023/01/29 11:25:40;;;;;;;;;;;;;;;;;;5053682;28;19915;-54
2023/01/29 11:28:06;;;;;;;;;;;;;;;;;;5053556;28;20011;-52
2023/01/29 11:30:32;;;;;;;;;;;;;;;;;;5053583;28;20008;-55
2023/01/29 11:32:58;;;;;;;;;;;;;;;;;;5053669;28;19909;-54
2023/01/29 11:35:24;;;;;;;;;;;;;;;;;;5053607;28;19909;-55
2023/01/29 11:37:50;;;;;;;;;;;;;;;;;;5053412;28;19916;-55
2023/01/29 11:40:15;;;;;;;;;;;;;;;;;;5054092;28;19999;-52
2023/01/29 11:42:41;;;;;;;;;;;;;;;;;;5053379;28;19916;-53
2023/01/29 11:45:07;;;;;;;;;;;;;;;;;;5054258;28;19921;-52
2023/01/29 11:47:33;;;;;;;;;;;;;;;;;;5055486;28;19912;-55
2023/01/29 11:49:59;;;;;;;;;;;;;;;;;;5066551;28;20272;-54
2023/01/29 11:52:25;;;;;;;;;;;;;;;;;;5057559;28;19931;-51
2023/01/29 11:54:51;;;;;;;;;;;;;;;;;;5059422;28;20253;-55
2023/01/29 11:57:17;;;;;;;;;;;;;;;;;;5057568;28;19920;-50
2023/01/29 11:59:47;;;;;;;;;;;;;;;;;;5067272;28;20054;-54
2023/01/29 12:02:13;;;;;;;;;;;;;;;;;;5054220;28;19913;-55
2023/01/29 12:04:39;;;;;;;;;;;;;;;;;;5051108;28;19912;-50
2023/01/29 12:07:05;;;;;;;;;;;;;;;;;;5071303;28;19913;-50
2023/01/29 12:09:31;;;;;;;;;;;;;;;;;;5065458;28;19916;-53
2023/01/29 12:11:57;;;;;;;;;;;;;;;;;;5060617;28;19943;-56
2023/01/29 12:14:23;;;;;;;;;;;;;;;;;;5058712;28;19962;-52
2023/01/29 12:16:49;;;;;;;;;;;;;;;;;;5063583;28;19947;-53
2023/01/29 12:19:15;;;;;;;;;;;;;;;;;;5065826;28;19965;-53
2023/01/29 12:21:41;;;;;;;;;;;;;;;;;;5072766;28;19916;-51
2023/01/29 12:24:07;;;;;;;;;;;;;;;;;;5066256;28;19917;-53
2023/01/29 12:26:33;;;;;;;;;;;;;;;;;;5052680;28;20004;-54
2023/01/29 12:28:59;;;;;;;;;;;;;;;;;;5069640;28;20002;-55
2023/01/29 12:31:25;;;;;;;;;;;;;;;;;;5063481;28;20030;-54
2023/01/29 12:33:50;;;;;;;;;;;;;;;;;;5052880;28;19909;-56
2023/01/29 12:36:16;;;;;;;;;;;;;;;;;;5071603;28;19912;-51
2023/01/29 12:38:42;;;;;;;;;;;;;;;;;;5103571;22;20447;-59
2023/01/29 12:41:08;;;;;;;;;;;;;;;;;;5094065;28;20402;-60
2023/01/29 12:43:36;;;;;;;;;;;;;;;;;;5112290;28;20553;-59
2023/01/29 12:46:02;;;;;;;;;;;;;;;;;;5122522;27;19912;-60
2023/01/29 12:48:28;;;;;;;;;;;;;;;;;;5120321;27;20347;-56
2023/01/29 12:50:54;;;;;;;;;;;;;;;;;;5112790;28;19912;-59
2023/01/29 12:53:20;;;;;;;;;;;;;;;;;;5113046;27;20006;-59
2023/01/29 12:55:47;;;;;;;;;;;;;;;;;;5132066;27;20417;-59
2023/01/29 12:58:12;;;;;;;;;;;;;;;;;;5127016;27;19918;-59
2023/01/29 13:00:39;;;;;;;;;;;;;;;;;;5119395;27;19912;-57
2023/01/29 13:03:04;;;;;;;;;;;;;;;;;;5113967;27;21390;-58
2023/01/29 13:05:30;;;;;;;;;;;;;;;;;;5121223;28;19912;-58
2023/01/29 13:07:56;;;;;;;;;;;;;;;;;;5123362;27;19911;-59
2023/01/29 13:10:22;;;;;;;;;;;;;;;;;;5119026;27;20064;-59
2023/01/29 13:12:48;;;;;;;;;;;;;;;;;;5105687;28;19923;-60
2023/01/29 13:15:14;;;;;;;;;;;;;;;;;;5120984;27;19918;-58
2023/01/29 13:17:40;;;;;;;;;;;;;;;;;;5122358;28;19912;-57
2023/01/29 13:20:06;;;;;;;;;;;;;;;;;;5094125;28;19908;-58
2023/01/29 13:22:32;;;;;;;;;;;;;;;;;;5112294;28;20383;-56
2023/01/29 13:24:58;;;;;;;;;;;;;;;;;;5124287;28;19911;-59
2023/01/29 13:27:24;;;;;;;;;;;;;;;;;;5094586;28;19973;-60
2023/01/29 13:29:50;;;;;;;;;;;;;;;;;;5125858;28;19922;-60
2023/01/29 13:32:16;;;;;;;;;;;;;;;;;;5132701;28;19914;-58
2023/01/29 13:34:42;;;;;;;;;;;;;;;;;;5132820;28;19943;-57
2023/01/29 13:37:07;;;;;;;;;;;;;;;;;;5108152;28;19966;-57
2023/01/29 13:39:33;;;;;;;;;;;;;;;;;;5112421;28;20256;-58
2023/01/29 13:41:59;;;;;;;;;;;;;;;;;;5112409;28;20367;-58
2023/01/29 13:44:25;;;;;;;;;;;;;;;;;;5112720;28;19966;-58
2023/01/29 13:46:51;;;;;;;;;;;;;;;;;;5125278;28;20363;-59
2023/01/29 13:49:17;;;;;;;;;;;;;;;;;;5094206;28;19912;-58
2023/01/29 13:51:43;;;;;;;;;;;;;;;;;;5093882;28;20395;-58
2023/01/29 13:54:09;;;;;;;;;;;;;;;;;;5112662;28;19923;-59
2023/01/29 13:56:35;;;;;;;;;;;;;;;;;;5112094;28;20427;-59
2023/01/29 13:59:01;;;;;;;;;;;;;;;;;;5094254;28;19958;-60
2023/01/29 14:01:27;;;;;;;;;;;;;;;;;;5101343;28;19919;-58
2023/01/29 14:03:53;;;;;;;;;;;;;;;;;;5132402;28;20010;-55
2023/01/29 14:06:19;;;;;;;;;;;;;;;;;;5132481;28;19917;-57
2023/01/29 14:08:46;;;;;;;;;;;;;;;;;;5131482;27;19908;-57
2023/01/29 14:11:12;;;;;;;;;;;;;;;;;;5112040;28;20375;-59
2023/01/29 14:13:38;;;;;;;;;;;;;;;;;;5112159;28;19908;-60
2023/01/29 14:16:04;;;;;;;;;;;;;;;;;;5112879;28;19912;-60
2023/01/29 14:18:30;;;;;;;;;;;;;;;;;;5126889;27;19911;-61
2023/01/29 14:20:56;;;;;;;;;;;;;;;;;;5112954;28;19965;-61
2023/01/29 14:23:21;;;;;;;;;;;;;;;;;;5117406;28;19912;-61
2023/01/29 14:25:47;;;;;;;;;;;;;;;;;;5120796;28;19911;-60
2023/01/29 14:28:13;;;;;;;;;;;;;;;;;;5115647;28;19908;-60
2023/01/29 14:30:39;;;;;;;;;;;;;;;;;;5133569;27;19920;-60
2023/01/29 14:33:05;;;;;;;;;;;;;;;;;;5136303;27;19907;-60
2023/01/29 14:35:32;;;;;;;;;;;;;;;;;;5133743;27;19999;-59
2023/01/29 14:37:58;;;;;;;;;;;;;;;;;;5136050;27;19912;-58
2023/01/29 14:40:24;;;;;;;;;;;;;;;;;;5135936;27;20423;-58
2023/01/29 14:42:51;;;;;;;;;;;;;;;;;;5135856;27;20002;-60
2023/01/29 14:45:17;;;;;;;;;;;;;;;;;;5104233;27;20394;-58
2023/01/29 14:47:43;;;;;;;;;;;;;;;;;;5135898;27;20094;-60
2023/01/29 14:50:09;;;;;;;;;;;;;;;;;;5135584;27;19918;-60
2023/01/29 14:52:34;;;;;;;;;;;;;;;;;;5135919;27;19907;-60
2023/01/29 14:55:00;;;;;;;;;;;;;;;;;;5121931;27;19955;-60
2023/01/29 14:57:26;;;;;;;;;;;;;;;;;;5135508;27;19918;-59
2023/01/29 14:59:53;;;;;;;;;;;;;;;;;;5123498;27;20276;-60
2023/01/29 15:02:19;;;;;;;;;;;;;;;;;;5125142;27;19987;-60
2023/01/29 15:04:44;;;;;;;;;;;;;;;;;;5116110;27;20376;-60
2023/01/29 15:07:10;;;;;;;;;;;;;;;;;;5114994;28;19908;-60
2023/01/29 15:09:36;;;;;;;;;;;;;;;;;;5121610;27;19915;-59
2023/01/29 15:12:02;;;;;;;;;;;;;;;;;;5120193;27;19965;-59
2023/01/29 15:14:28;;;;;;;;;;;;;;;;;;5135290;27;19907;-60
2023/01/29 15:16:54;;;;;;;;;;;;;;;;;;5122505;27;19911;-60
2023/01/29 15:19:20;;;;;;;;;;;;;;;;;;5133570;27;19994;-60
2023/01/29 15:21:46;;;;;;;;;;;;;;;;;;5101762;28;19995;-60
2023/01/29 15:24:12;;;;;;;;;;;;;;;;;;5124920;27;19919;-59
2023/01/29 15:26:38;;;;;;;;;;;;;;;;;;5117436;27;19912;-58
2023/01/29 15:29:04;;;;;;;;;;;;;;;;;;5105796;27;19971;-57
2023/01/29 15:31:32;;;;;;;;;;;;;;;;;;5134172;27;19922;-59
2023/01/29 15:33:59;;;;;;;;;;;;;;;;;;5121917;27;20010;-58
2023/01/29 15:36:25;;;;;;;;;;;;;;;;;;5114446;27;19912;-59
2023/01/29 15:38:50;;;;;;;;;;;;;;;;;;5121297;27;19919;-60
2023/01/29 15:41:16;;;;;;;;;;;;;;;;;;5134875;27;19911;-59
2023/01/29 15:43:42;;;;;;;;;;;;;;;;;;5117336;27;19965;-58
2023/01/29 15:46:08;;;;;;;;;;;;;;;;;;5113912;28;19951;-59
2023/01/29 15:48:34;;;;;;;;;;;;;;;;;;5132463;27;19952;-59
2023/01/29 15:51:03;;;;;;;;;;;;;;;;;;5134060;27;20021;-59
2023/01/29 15:53:29;;;;;;;;;;;;;;;;;;5133958;27;20383;-58
2023/01/29 15:55:56;;;;;;;;;;;;;;;;;;5134367;27;19915;-60
2023/01/29 15:58:22;;;;;;;;;;;;;;;;;;5115950;27;19915;-59
2023/01/29 16:00:48;;;;;;;;;;;;;;;;;;5134308;27;20295;-59
2023/01/29 16:03:14;;;;;;;;;;;;;;;;;;5134267;27;20355;-60
2023/01/29 16:05:40;;;;;;;;;;;;;;;;;;5115234;27;20360;-59
2023/01/29 16:08:06;;;;;;;;;;;;;;;;;;5116293;27;19912;-57
2023/01/29 16:10:32;;;;;;;;;;;;;;;;;;5094747;27;19991;-58
2023/01/29 16:12:58;;;;;;;;;;;;;;;;;;5099111;27;19911;-59
2023/01/29 16:15:24;;;;;;;;;;;;;;;;;;5133890;27;19911;-56
2023/01/29 16:17:50;;;;;;;;;;;;;;;;;;5131553;27;19915;-57
2023/01/29 16:20:16;;;;;;;;;;;;;;;;;;5120562;27;19919;-58
2023/01/29 16:22:42;;;;;;;;;;;;;;;;;;5126345;27;20279;-57
2023/01/29 16:25:08;;;;;;;;;;;;;;;;;;5127551;27;19912;-59
2023/01/29 16:27:34;;;;;;;;;;;;;;;;;;5114758;27;19915;-57
2023/01/29 16:30:01;;;;;;;;;;;;;;;;;;5113010;28;19915;-59
2023/01/29 16:32:26;;;;;;;;;;;;;;;;;;5113454;28;19923;-59
2023/01/29 16:34:53;;;;;;;;;;;;;;;;;;5113000;28;19956;-55
2023/01/29 16:37:19;;;;;;;;;;;;;;;;;;5122109;27;19962;-58
2023/01/29 16:39:45;;;;;;;;;;;;;;;;;;5133520;27;19936;-59
2023/01/29 16:42:11;;;;;;;;;;;;;;;;;;5133433;27;19914;-59
2023/01/29 16:44:37;;;;;;;;;;;;;;;;;;5133225;27;19907;-59
2023/01/29 16:47:03;;;;;;;;;;;;;;;;;;5133562;27;20371;-58
2023/01/29 16:49:29;;;;;;;;;;;;;;;;;;5133336;27;20358;-59
2023/01/29 16:51:55;;;;;;;;;;;;;;;;;;5115059;27;19998;-59
2023/01/29 16:54:22;;;;;;;;;;;;;;;;;;5114845;27;20060;-57
2023/01/29 16:56:48;;;;;;;;;;;;;;;;;;5133436;27;19907;-55
2023/01/29 16:59:14;;;;;;;;;;;;;;;;;;5133001;27;19924;-59
2023/01/29 17:01:40;;;;;;;;;;;;;;;;;;5132713;27;20359;-60
2023/01/29 17:04:06;;;;;;;;;;;;;;;;;;5133005;27;19907;-58
2023/01/29 17:06:32;;;;;;;;;;;;;;;;;;5133129;27;20331;-58
2023/01/29 17:08:58;;;;;;;;;;;;;;;;;;5133087;27;19946;-59